Angelholm Helsingborg Airport

Airport
ICAO code: 
ESTA
Summary
ICAO Region: 
EUR
Territory: 
Location: 
Angelholm, Sweden,
Coordinates: 
Aerial View: 
56° 17' 28" N, 12° 51' 18" E
Metar
Observation
ESTA 082120Z AUTO 12015KT 9999 OVC013/// 01/M02 Q1008
Station
ANGELHOLM (SWE-A
Date/Time
2021-12-08 21:20:00
Wind direction
120°
Wind speed
15 kts
Lowest cloud amount
overcast
Temperature
1°C
Dew point
-2°C
Humidity
80%
QNH
1008 hPa
Weather condition
n/a

Description

Airport serving towns of Angelholm and Helsingborg, southwest Sweden.

Climatology

Temperate Marine climate/Oceanic climate (Köppen climate classification Cfb). Moderately cool summer and comparatively warm winter.

Runways

Designator Length Width Surface Rops
14/32 1945 40 ASP Yes/Yes
4/22 1997 40 ASP No/No
Airport map: 
Aerial View: 

SKYbrary Partners:

Safety knowledge contributed by: